York, PA (17406)

11:22 PM EST on December 18, 2014 (GMT -0500)
Highmount (W3PNZ) | Change Station
CLOSE
Current Station
Personal Weather Station
Location: York, PA
Elevation: 720 ft
Nearby Weather Stations

Elev 720 ft 40.03 °N, 76.59 °W | Updated 11 seconds ago

Overcast
Overcast
36.7 °F
Feels Like 32 °F
N
5.8
Wind Variable Wind from NE
Gusts 5.8 mph

Today
High -- | Low -- °F
--% Chance of Precip.
Yesterday
High -- | Low -- °F
Precip. -- in
7:23 AM 4:43 PM
Waning Crescent, 10% visible
Pressure 30.09 in
Visibility 10.0 miles
Clouds Overcast 2800 ft
Windchill 32 °F
Dew Point 26 °F
Humidity 65%
Rainfall 0.00 in
Snow Depth Not available.
UV 0 out of 12
Pollen .10 out of 12
Air Quality Not available.
Flu Activity Not available.
METAR KTHV 190353Z AUTO 31005KT 10SM OVC028 01/M04 A3007 RMK AO2 SLP190 T00111044

More Conditions Fewer Conditions

Pressure 30.09 in
Visibility 10.0 miles
Clouds Overcast 2800 ft
Windchill 32 °F
Dew Point 26 °F
Humidity 65%
Rainfall 0.00 in
Snow Depth Not available.
UV 0 out of 12
Pollen .10 out of 12
Air Quality Not available.
Flu Activity Not available.
METAR KTHV 190353Z AUTO 31005KT 10SM OVC028 01/M04 A3007 RMK AO2 SLP190 T00111044

More Conditions Fewer Conditions

10-Day Weather Forecast

Almanac

Astronomy

Dec. 18, 2014 Rise Set
Actual Time
Civil Twilight
Nautical Twilight
Astronomical Twilight
Moon
Length of Visible Light
Length of Day
Tomorrow will be .
, % of the Moon is Illuminated

Today's Extremes

State Highs State Lows

Community

WunderPhotos

Upload Photos

1,778,968 photos uploaded!

WunderBlogs® & News

Nearby

Air Quality

  Air Quality AQ Index Pollutant
Not available.

Snow Depth

Station Depth Elevation

Earthquake Activity

City Distance Mag. Time & Date
Minimum magnitude displayed is 2.5.

Coastal Water Temperatures

Place Temperature

Nearby Weather Stations